createdAt,value
2018-11-06T00:01:42.088Z,24.17
2018-11-06T00:04:12.194Z,24.67
2018-11-06T00:06:42.258Z,25.50
2018-11-06T00:09:12.392Z,23.60
2018-11-06T00:11:42.465Z,26.83
2018-11-06T00:14:12.582Z,23.50
2018-11-06T00:16:44.335Z,23.60
2018-11-06T00:19:14.403Z,27.73
2018-11-06T00:21:44.805Z,22.70
2018-11-06T00:24:14.865Z,24.83
2018-11-06T00:26:44.979Z,20.93
2018-11-06T00:29:15.049Z,20.73
2018-11-06T00:31:45.151Z,22.20
2018-11-06T00:34:15.535Z,22.97
2018-11-06T00:36:45.599Z,24.23
2018-11-06T00:39:15.606Z,27.23
2018-11-06T00:41:46.265Z,33.70
2018-11-06T00:44:16.349Z,26.57
2018-11-06T00:46:46.423Z,27.03
2018-11-06T00:49:16.511Z,25.80
2018-11-06T00:51:46.571Z,20.13
2018-11-06T00:54:16.631Z,22.53
2018-11-06T00:56:46.722Z,22.57
2018-11-06T00:59:17.565Z,23.40
2018-11-06T01:01:47.659Z,24.17
2018-11-06T01:04:17.694Z,21.07
2018-11-06T01:06:47.732Z,26.30
2018-11-06T01:09:18.237Z,20.40
2018-11-06T01:11:48.349Z,23.73
2018-11-06T01:14:18.427Z,22.50
2018-11-06T01:16:48.511Z,21.90
2018-11-06T01:19:18.602Z,20.67
2018-11-06T01:21:48.682Z,22.80
2018-11-06T01:24:18.765Z,21.57
2018-11-06T01:26:48.840Z,26.37
2018-11-06T01:29:19.920Z,23.60
2018-11-06T01:31:50.204Z,27.43
2018-11-06T01:34:20.997Z,18.13
2018-11-06T01:36:51.051Z,26.87
2018-11-06T01:39:21.139Z,24.20
2018-11-06T01:41:51.232Z,20.77
2018-11-06T01:44:21.359Z,21.30
2018-11-06T01:46:51.451Z,25.23
2018-11-06T01:49:21.474Z,20.83
2018-11-06T01:51:51.609Z,22.90
2018-11-06T01:54:22.440Z,24.53
2018-11-06T01:56:52.552Z,24.17
2018-11-06T01:59:22.626Z,23.33
2018-11-06T02:01:52.699Z,18.00
2018-11-06T02:04:22.782Z,23.87
2018-11-06T02:06:53.324Z,20.07
2018-11-06T02:09:23.360Z,20.90
2018-11-06T02:11:53.418Z,21.73
2018-11-06T02:14:23.491Z,27.57
2018-11-06T02:16:53.592Z,19.03
2018-11-06T02:19:23.759Z,22.60
2018-11-06T02:21:53.914Z,19.63
2018-11-06T02:24:24.049Z,20.67
2018-11-06T02:26:54.094Z,22.87
2018-11-06T02:29:24.183Z,25.13
2018-11-06T02:31:54.236Z,23.67
2018-11-06T02:34:24.366Z,24.43
2018-11-06T02:36:54.509Z,25.93
2018-11-06T02:39:24.626Z,21.47
2018-11-06T02:41:54.691Z,22.00
2018-11-06T02:44:25.109Z,22.33
2018-11-06T02:46:58.174Z,25.90
2018-11-06T02:49:28.221Z,22.93
2018-11-06T02:51:58.353Z,23.17
2018-11-06T02:54:28.436Z,42.07
2018-11-06T02:56:58.511Z,28.97
2018-11-06T02:59:28.544Z,20.90
2018-11-06T03:01:59.656Z,19.27
2018-11-06T03:04:29.722Z,19.27
2018-11-06T03:07:01.537Z,19.50
2018-11-06T03:09:31.739Z,22.67
2018-11-06T03:12:01.838Z,22.17
2018-11-06T03:14:31.880Z,23.10
2018-11-06T03:17:02.102Z,19.90
2018-11-06T03:19:32.033Z,17.27
2018-11-06T03:22:05.099Z,18.10
2018-11-06T03:24:35.146Z,21.97
2018-11-06T03:27:05.307Z,19.97
2018-11-06T03:29:35.340Z,25.83
2018-11-06T03:32:07.093Z,21.00
2018-11-06T03:34:37.142Z,23.70
2018-11-06T03:37:07.696Z,18.83
2018-11-06T03:39:37.764Z,21.63
2018-11-06T03:42:07.997Z,19.90
2018-11-06T03:44:38.080Z,17.27
2018-11-06T03:47:08.163Z,19.63
2018-11-06T03:49:38.231Z,19.47
2018-11-06T03:52:08.403Z,21.63
2018-11-06T03:54:38.463Z,22.93
2018-11-06T03:57:08.571Z,17.40
2018-11-06T03:59:38.704Z,17.57
2018-11-06T04:02:08.795Z,21.03
2018-11-06T04:04:38.891Z,22.63
2018-11-06T04:07:08.963Z,21.87
2018-11-06T04:09:39.146Z,21.47
2018-11-06T04:12:09.171Z,22.00
2018-11-06T04:14:39.243Z,20.60
2018-11-06T04:17:09.353Z,20.63
2018-11-06T04:19:39.453Z,18.30
2018-11-06T04:22:09.604Z,20.30
2018-11-06T04:24:39.685Z,22.73
2018-11-06T04:27:09.750Z,22.90
2018-11-06T04:29:39.795Z,19.63
2018-11-06T04:32:10.689Z,20.80
2018-11-06T04:34:40.743Z,19.40
2018-11-06T04:37:11.092Z,19.73
2018-11-06T04:39:41.154Z,20.90
2018-11-06T04:42:11.243Z,19.10
2018-11-06T04:44:41.278Z,19.23
2018-11-06T04:47:11.433Z,20.83
2018-11-06T04:49:41.899Z,16.03
2018-11-06T04:52:12.043Z,17.67
2018-11-06T04:54:42.091Z,18.97
2018-11-06T04:57:12.174Z,16.93
2018-11-06T04:59:42.226Z,22.53
2018-11-06T05:02:14.422Z,19.60
2018-11-06T05:04:46.108Z,17.63
2018-11-06T05:07:16.201Z,19.20
2018-11-06T05:09:46.261Z,17.33
2018-11-06T05:12:18.241Z,18.47
2018-11-06T05:14:48.330Z,16.23
2018-11-06T05:17:18.587Z,18.97
2018-11-06T05:19:48.663Z,19.70
2018-11-06T05:22:18.747Z,20.87
2018-11-06T05:24:49.395Z,22.00
2018-11-06T05:27:19.499Z,17.00
2018-11-06T05:29:49.527Z,25.53
2018-11-06T05:32:19.577Z,23.80
2018-11-06T05:34:49.728Z,21.40
2018-11-06T05:37:19.801Z,19.40
2018-11-06T05:40:06.943Z,16.73
2018-11-06T05:42:37.898Z,15.07
2018-11-06T05:45:07.995Z,22.37
2018-11-06T05:47:38.098Z,19.07
2018-11-06T05:50:08.237Z,15.87
2018-11-06T05:52:38.306Z,21.73
2018-11-06T05:55:08.390Z,16.50
2018-11-06T05:57:38.764Z,18.43
2018-11-06T06:00:09.495Z,21.53
2018-11-06T06:02:39.638Z,19.33
2018-11-06T06:05:09.766Z,20.10
2018-11-06T06:07:39.908Z,16.93
2018-11-06T06:10:09.993Z,20.77
2018-11-06T06:12:40.071Z,22.10
2018-11-06T06:15:10.682Z,25.37
2018-11-06T06:17:40.791Z,21.57
2018-11-06T06:20:11.076Z,18.03
2018-11-06T06:22:41.228Z,25.90
2018-11-06T06:25:11.242Z,21.40
2018-11-06T06:27:41.382Z,24.80
2018-11-06T06:30:13.841Z,21.63
2018-11-06T06:32:45.046Z,23.83
2018-11-06T06:35:15.208Z,25.57
2018-11-06T06:37:45.272Z,20.23
2018-11-06T06:40:16.535Z,19.50
2018-11-06T06:42:53.317Z,20.13
2018-11-06T06:45:23.494Z,18.53
2018-11-06T06:47:53.570Z,21.50
2018-11-06T06:50:23.652Z,17.57
2018-11-06T06:52:53.727Z,22.70
2018-11-06T06:55:23.802Z,22.60
2018-11-06T06:57:53.888Z,23.97
2018-11-06T07:00:23.972Z,21.47
2018-11-06T07:02:54.861Z,20.17
2018-11-06T07:05:24.976Z,20.23
2018-11-06T07:07:55.056Z,23.60
2018-11-06T07:10:25.158Z,24.17
2018-11-06T07:12:55.320Z,21.47
2018-11-06T07:15:25.472Z,20.93
2018-11-06T07:17:55.603Z,27.70
2018-11-06T07:20:26.379Z,24.27
2018-11-06T07:22:56.549Z,23.77
2018-11-06T07:25:26.685Z,27.57
2018-11-06T07:27:56.782Z,23.40
2018-11-06T07:30:26.802Z,26.03
2018-11-06T07:32:56.943Z,29.27
2018-11-06T07:35:27.180Z,27.03
2018-11-06T07:37:57.175Z,27.37
2018-11-06T07:40:27.338Z,27.33
2018-11-06T07:42:57.653Z,25.13
2018-11-06T07:45:27.723Z,25.17
2018-11-06T07:47:57.845Z,25.17
2018-11-06T07:50:28.070Z,34.33
2018-11-06T07:52:58.800Z,28.97
2018-11-06T07:55:28.947Z,27.03
2018-11-06T07:57:59.029Z,29.80
2018-11-06T08:00:29.059Z,25.57
2018-11-06T08:02:59.177Z,28.20
2018-11-06T08:05:29.253Z,27.10
2018-11-06T08:07:59.344Z,24.40
2018-11-06T08:10:29.487Z,28.60
2018-11-06T08:12:59.595Z,23.03
2018-11-06T08:15:29.975Z,25.13
2018-11-06T08:18:00.128Z,29.77
2018-11-06T08:20:30.391Z,29.53
2018-11-06T08:23:00.457Z,23.50
2018-11-06T08:25:30.584Z,21.50
2018-11-06T08:28:00.695Z,27.20
2018-11-06T08:30:30.810Z,28.97
2018-11-06T08:33:00.961Z,30.60
2018-11-06T08:35:31.037Z,28.63
2018-11-06T08:38:01.144Z,22.80
2018-11-06T08:40:31.257Z,23.93
2018-11-06T08:43:01.371Z,23.87
2018-11-06T08:45:31.511Z,24.10
2018-11-06T08:48:01.635Z,20.90
2018-11-06T08:50:31.727Z,22.57
2018-11-06T08:53:01.827Z,18.77
2018-11-06T08:55:31.920Z,23.23
2018-11-06T08:58:02.057Z,20.20
2018-11-06T09:00:32.179Z,23.67
2018-11-06T09:03:02.200Z,21.07
2018-11-06T09:05:32.395Z,21.57
2018-11-06T09:08:02.489Z,28.33
2018-11-06T09:10:32.577Z,20.93
2018-11-06T09:13:02.966Z,22.57
2018-11-06T09:15:33.070Z,21.20
2018-11-06T09:18:03.165Z,14.43
2018-11-06T09:20:33.302Z,18.17
2018-11-06T09:23:03.837Z,15.50
2018-11-06T09:25:33.924Z,16.80
2018-11-06T09:28:04.164Z,12.97
2018-11-06T09:30:34.271Z,15.13
2018-11-06T09:33:04.332Z,10.70
2018-11-06T09:35:34.376Z,13.57
2018-11-06T09:38:04.529Z,9.03
2018-11-06T09:40:34.627Z,10.43
2018-11-06T09:43:05.099Z,8.17
2018-11-06T09:45:35.224Z,8.33
2018-11-06T09:48:05.860Z,8.43
2018-11-06T09:50:35.932Z,8.93
2018-11-06T09:53:06.098Z,6.60
2018-11-06T09:55:36.187Z,6.00
2018-11-06T09:58:06.648Z,6.13
2018-11-06T10:00:36.695Z,6.40
2018-11-06T10:03:07.355Z,8.23
2018-11-06T10:05:37.558Z,6.93
2018-11-06T10:08:07.719Z,6.10
2018-11-06T10:10:39.117Z,8.43
2018-11-06T10:13:09.379Z,4.40
2018-11-06T10:15:40.584Z,7.77
2018-11-06T10:18:10.606Z,6.67
2018-11-06T10:20:40.734Z,5.40
2018-11-06T10:23:11.080Z,4.87
2018-11-06T10:25:42.004Z,4.30
2018-11-06T10:28:12.070Z,4.40
2018-11-06T10:30:42.209Z,4.93
2018-11-06T10:33:12.288Z,4.03
2018-11-06T10:35:42.404Z,5.97
2018-11-06T10:38:12.482Z,4.20
2018-11-06T10:40:42.976Z,4.03
2018-11-06T10:43:13.123Z,3.60
2018-11-06T10:45:43.215Z,4.73
2018-11-06T10:48:13.472Z,4.50
2018-11-06T10:50:43.583Z,3.70
2018-11-06T10:53:13.697Z,4.40
2018-11-06T10:55:43.821Z,5.60
2018-11-06T10:58:14.022Z,3.20
2018-11-06T11:00:49.414Z,4.27
2018-11-06T11:03:24.722Z,5.87
2018-11-06T11:05:54.830Z,3.70
2018-11-06T11:08:24.910Z,4.00
2018-11-06T11:10:55.042Z,4.57
2018-11-06T11:13:25.224Z,5.13
2018-11-06T11:15:55.312Z,6.10
2018-11-06T11:18:25.595Z,3.57
2018-11-06T11:20:55.675Z,4.00
2018-11-06T11:23:25.869Z,3.93
2018-11-06T11:25:55.986Z,5.17
2018-11-06T11:28:26.216Z,4.40
2018-11-06T11:30:56.317Z,4.73
2018-11-06T11:33:26.406Z,4.97
2018-11-06T11:35:56.531Z,5.27
2018-11-06T11:38:26.598Z,4.10
2018-11-06T11:40:56.709Z,3.70
2018-11-06T11:43:26.803Z,4.37
2018-11-06T11:45:57.062Z,4.77
2018-11-06T11:48:27.077Z,4.60
2018-11-06T11:50:57.141Z,5.73
2018-11-06T11:53:27.381Z,5.10
2018-11-06T11:55:57.439Z,4.53
2018-11-06T11:58:27.610Z,4.13
2018-11-06T12:00:57.717Z,4.73
2018-11-06T12:03:27.789Z,5.13
2018-11-06T12:05:58.007Z,7.60
2018-11-06T12:08:28.138Z,4.13
2018-11-06T12:10:58.255Z,5.17
2018-11-06T12:13:28.361Z,5.07
2018-11-06T12:15:58.483Z,5.40
2018-11-06T12:18:28.589Z,7.00
2018-11-06T12:20:58.676Z,4.57
2018-11-06T12:23:28.794Z,6.13
2018-11-06T12:25:58.890Z,9.50
2018-11-06T12:28:29.065Z,5.77
2018-11-06T12:30:59.236Z,3.83
2018-11-06T12:33:29.387Z,5.37
2018-11-06T12:35:59.488Z,5.87
2018-11-06T12:38:29.656Z,3.60
2018-11-06T12:40:59.780Z,4.40
2018-11-06T12:43:29.989Z,6.77
2018-11-06T12:46:00.027Z,3.70
2018-11-06T12:48:30.276Z,4.97
2018-11-06T12:51:00.629Z,3.83
2018-11-06T12:53:30.832Z,5.67
2018-11-06T12:56:00.919Z,9.47
2018-11-06T12:58:31.004Z,4.40
2018-11-06T13:01:01.389Z,3.63
2018-11-06T13:03:31.851Z,5.30
2018-11-06T13:06:01.903Z,3.23
2018-11-06T13:08:32.030Z,3.70
2018-11-06T13:11:02.395Z,3.90
2018-11-06T13:13:32.587Z,3.57
2018-11-06T13:16:04.444Z,3.53
2018-11-06T13:18:34.974Z,3.80
2018-11-06T13:21:05.490Z,3.47
2018-11-06T13:23:35.606Z,5.07
2018-11-06T13:26:05.904Z,4.97
2018-11-06T13:28:35.968Z,3.47
2018-11-06T13:31:06.270Z,3.90
2018-11-06T13:33:36.375Z,4.67
2018-11-06T13:36:06.600Z,3.87
2018-11-06T13:38:36.756Z,4.80
2018-11-06T13:41:07.027Z,4.23
2018-11-06T13:43:37.240Z,3.30
2018-11-06T13:46:07.314Z,4.47
2018-11-06T13:48:37.405Z,3.73
2018-11-06T13:51:07.573Z,6.20
2018-11-06T13:53:37.622Z,4.33
2018-11-06T13:56:07.761Z,5.80
2018-11-06T13:58:37.813Z,5.20
2018-11-06T14:01:08.758Z,5.07
2018-11-06T14:03:38.894Z,4.07
2018-11-06T14:06:09.192Z,5.90
2018-11-06T14:08:39.231Z,3.80
2018-11-06T14:11:09.478Z,4.73
2018-11-06T14:13:39.568Z,8.80
2018-11-06T14:16:09.710Z,11.40
2018-11-06T14:18:39.870Z,7.37
2018-11-06T14:21:10.166Z,9.80
2018-11-06T14:23:40.252Z,5.33
2018-11-06T14:26:10.419Z,5.00
2018-11-06T14:28:40.548Z,8.23
2018-11-06T14:31:10.666Z,20.93
2018-11-06T14:33:40.764Z,9.83
2018-11-06T14:36:10.894Z,5.97
2018-11-06T14:38:41.070Z,5.93
2018-11-06T14:41:11.221Z,4.67
2018-11-06T14:43:41.302Z,6.07
2018-11-06T14:46:11.587Z,7.73
2018-11-06T14:48:41.792Z,7.87
2018-11-06T14:51:11.823Z,8.50
2018-11-06T14:53:41.924Z,7.93
2018-11-06T14:56:12.083Z,10.13
2018-11-06T14:58:42.206Z,10.43
2018-11-06T15:01:12.407Z,7.87
2018-11-06T15:03:42.515Z,6.97
2018-11-06T15:06:12.628Z,11.00
2018-11-06T15:08:42.746Z,6.53
2018-11-06T15:11:12.924Z,9.37
2018-11-06T15:13:43.066Z,8.87
2018-11-06T15:16:13.231Z,11.67
2018-11-06T15:18:43.331Z,8.30
2018-11-06T15:21:13.480Z,6.80
2018-11-06T15:23:43.579Z,7.73
2018-11-06T15:26:13.712Z,11.37
2018-11-06T15:28:43.785Z,9.90
2018-11-06T15:31:13.938Z,10.03
2018-11-06T15:33:44.042Z,10.07
2018-11-06T15:36:14.197Z,8.03
2018-11-06T15:38:44.303Z,8.40
2018-11-06T15:41:14.572Z,6.17
2018-11-06T15:43:44.513Z,6.10
2018-11-06T15:46:14.710Z,6.43
2018-11-06T15:48:44.922Z,8.87
2018-11-06T15:51:15.053Z,7.20
2018-11-06T15:53:45.235Z,8.40
2018-11-06T15:56:15.414Z,8.20
2018-11-06T15:58:45.555Z,10.80
2018-11-06T16:01:15.692Z,13.47
2018-11-06T16:03:45.783Z,12.50
2018-11-06T16:06:17.044Z,12.77
2018-11-06T16:08:47.172Z,12.30
2018-11-06T16:11:17.329Z,14.97
2018-11-06T16:13:47.484Z,10.23
2018-11-06T16:16:17.581Z,12.20
2018-11-06T16:18:47.726Z,11.10
2018-11-06T16:21:17.818Z,13.90
2018-11-06T16:23:47.970Z,14.10
2018-11-06T16:26:18.121Z,17.63
2018-11-06T16:28:48.251Z,17.87
2018-11-06T16:31:18.337Z,16.33
2018-11-06T16:33:48.433Z,17.10
2018-11-06T16:36:18.520Z,20.23
2018-11-06T16:38:48.624Z,16.10
2018-11-06T16:41:18.787Z,14.93
2018-11-06T16:43:48.935Z,14.80
2018-11-06T16:46:19.019Z,17.50
2018-11-06T16:48:49.214Z,18.63
2018-11-06T16:51:19.350Z,27.93
2018-11-06T16:53:49.493Z,25.00
2018-11-06T16:56:19.608Z,22.70
2018-11-06T16:58:56.246Z,26.27
2018-11-06T17:01:26.425Z,21.73
2018-11-06T17:03:56.507Z,21.87
2018-11-06T17:06:31.941Z,19.63
2018-11-06T17:09:02.019Z,24.33
2018-11-06T17:11:32.255Z,19.27
2018-11-06T17:14:02.774Z,18.33
2018-11-06T17:16:32.944Z,21.33
2018-11-06T17:19:03.662Z,21.30
2018-11-06T17:21:33.852Z,21.53
2018-11-06T17:24:03.976Z,26.07
2018-11-06T17:26:34.158Z,29.43
2018-11-06T17:29:04.940Z,25.40
2018-11-06T17:31:35.137Z,25.17
2018-11-06T17:34:05.378Z,23.27
2018-11-06T17:36:35.538Z,23.13
2018-11-06T17:39:09.524Z,24.27
2018-11-06T17:41:39.705Z,23.90
2018-11-06T17:44:09.819Z,27.50
2018-11-06T17:46:39.951Z,26.77
2018-11-06T17:49:10.099Z,25.87
2018-11-06T17:51:40.190Z,23.97
2018-11-06T17:54:10.302Z,20.90
2018-11-06T17:56:40.694Z,23.40
2018-11-06T17:59:10.792Z,22.67
2018-11-06T18:01:40.976Z,21.97
2018-11-06T18:04:11.189Z,22.90
2018-11-06T18:06:41.230Z,20.07
2018-11-06T18:09:12.756Z,20.70
2018-11-06T18:11:42.862Z,21.07
2018-11-06T18:14:12.936Z,18.93
2018-11-06T18:16:43.199Z,20.83
2018-11-06T18:19:13.279Z,20.47
2018-11-06T18:21:43.384Z,19.63
2018-11-06T18:24:13.522Z,20.13
2018-11-06T18:26:43.626Z,22.83
2018-11-06T18:29:13.754Z,20.87
2018-11-06T18:31:43.921Z,22.53
2018-11-06T18:34:14.280Z,26.93
2018-11-06T18:36:44.534Z,25.33
2018-11-06T18:39:14.995Z,27.20
2018-11-06T18:41:45.154Z,29.07
2018-11-06T18:44:15.377Z,29.70
2018-11-06T18:46:45.427Z,27.40
2018-11-06T18:49:15.700Z,28.27
2018-11-06T18:51:45.798Z,24.57
2018-11-06T18:54:15.873Z,27.63
2018-11-06T18:56:46.011Z,23.53
2018-11-06T18:59:16.120Z,33.37
2018-11-06T19:01:46.291Z,29.00
2018-11-06T19:04:16.407Z,22.63
2018-11-06T19:06:46.518Z,26.13
2018-11-06T19:09:16.666Z,29.70
2018-11-06T19:11:46.924Z,29.23
2018-11-06T19:14:17.035Z,31.77
2018-11-06T19:16:47.342Z,40.10
2018-11-06T19:19:17.368Z,40.33
2018-11-06T19:21:47.526Z,55.20
2018-11-06T19:24:17.607Z,44.37
2018-11-06T19:26:47.769Z,37.50
2018-11-06T19:29:17.882Z,33.90
2018-11-06T19:31:48.068Z,36.03
2018-11-06T19:34:18.339Z,40.50
2018-11-06T19:36:49.564Z,32.57
2018-11-06T19:39:19.667Z,34.00
2018-11-06T19:41:49.853Z,34.50
2018-11-06T19:44:19.993Z,29.57
2018-11-06T19:46:50.138Z,26.67
2018-11-06T19:49:20.221Z,17.73
2018-11-06T19:51:50.452Z,21.40
2018-11-06T19:54:20.641Z,23.60
2018-11-06T19:56:50.848Z,28.43
2018-11-06T19:59:21.087Z,25.60
2018-11-06T20:01:51.172Z,30.77
2018-11-06T20:04:21.343Z,34.50
2018-11-06T20:06:51.505Z,30.33
2018-11-06T20:09:21.712Z,28.37
2018-11-06T20:11:51.980Z,26.13
2018-11-06T20:14:22.029Z,30.60
2018-11-06T20:16:52.402Z,32.20
2018-11-06T20:19:22.529Z,30.73
2018-11-06T20:21:52.672Z,38.43
2018-11-06T20:24:22.746Z,38.60
2018-11-06T20:26:52.915Z,39.43
2018-11-06T20:29:23.023Z,38.93
2018-11-06T20:31:53.191Z,48.90
2018-11-06T20:34:23.891Z,34.30
2018-11-06T20:36:54.022Z,32.20
2018-11-06T20:39:24.168Z,34.67
2018-11-06T20:41:54.281Z,35.63
2018-11-06T20:44:24.475Z,32.30
2018-11-06T20:46:54.615Z,28.60
2018-11-06T20:49:24.727Z,26.47
2018-11-06T20:51:54.947Z,33.60
2018-11-06T20:54:25.209Z,30.50
2018-11-06T20:56:55.325Z,32.57
2018-11-06T20:59:25.482Z,34.33
2018-11-06T21:01:55.647Z,31.80
2018-11-06T21:04:25.785Z,30.17
2018-11-06T21:06:55.919Z,33.33
2018-11-06T21:09:26.036Z,31.33
2018-11-06T21:11:56.263Z,35.00
2018-11-06T21:14:26.352Z,29.57
2018-11-06T21:16:56.464Z,33.60
2018-11-06T21:19:26.595Z,32.30
2018-11-06T21:22:03.370Z,37.10
2018-11-06T21:24:33.484Z,30.83
2018-11-06T21:27:03.686Z,36.10
2018-11-06T21:29:33.741Z,35.60
2018-11-06T21:32:04.153Z,33.77
2018-11-06T21:34:34.282Z,31.97
2018-11-06T21:37:04.549Z,31.30
2018-11-06T21:39:34.678Z,37.37
2018-11-06T21:42:05.019Z,28.53
2018-11-06T21:44:35.107Z,27.73
2018-11-06T21:47:05.381Z,31.07
2018-11-06T21:49:35.485Z,31.73
2018-11-06T21:52:05.583Z,25.90
2018-11-06T21:54:35.735Z,36.87
2018-11-06T21:57:06.234Z,32.00
2018-11-06T21:59:36.327Z,30.30
2018-11-06T22:02:06.536Z,30.80
2018-11-06T22:04:36.666Z,28.80
2018-11-06T22:07:06.776Z,27.03
2018-11-06T22:09:36.842Z,28.33
2018-11-06T22:12:07.127Z,24.57
2018-11-06T22:14:37.195Z,24.53
2018-11-06T22:17:07.343Z,25.70
2018-11-06T22:19:37.517Z,26.60
2018-11-06T22:22:07.793Z,23.13
2018-11-06T22:24:37.910Z,30.87
2018-11-06T22:27:08.023Z,26.57
2018-11-06T22:29:38.234Z,24.93
2018-11-06T22:32:08.397Z,31.30
2018-11-06T22:34:38.391Z,22.70
2018-11-06T22:37:08.665Z,29.07
2018-11-06T22:39:39.730Z,25.47
2018-11-06T22:42:09.910Z,31.20
2018-11-06T22:44:40.041Z,26.63
2018-11-06T22:47:10.267Z,25.13
2018-11-06T22:49:40.383Z,30.37
2018-11-06T22:52:10.503Z,26.40
2018-11-06T22:54:40.575Z,28.43
2018-11-06T22:57:10.810Z,25.67
2018-11-06T22:59:40.895Z,21.13
2018-11-06T23:02:11.042Z,22.33
2018-11-06T23:04:41.138Z,25.93
2018-11-06T23:07:16.758Z,23.83
2018-11-06T23:09:47.249Z,24.77
2018-11-06T23:12:17.296Z,24.57
2018-11-06T23:14:47.462Z,21.53
2018-11-06T23:17:17.594Z,25.33
2018-11-06T23:19:47.648Z,29.57
2018-11-06T23:22:17.780Z,28.33
2018-11-06T23:24:47.876Z,31.43
2018-11-06T23:27:17.948Z,25.13
2018-11-06T23:29:48.023Z,24.87
2018-11-06T23:32:18.169Z,26.37
2018-11-06T23:34:48.219Z,25.13
2018-11-06T23:37:18.293Z,21.10
2018-11-06T23:39:48.353Z,27.63
2018-11-06T23:42:18.467Z,23.10
2018-11-06T23:44:48.542Z,24.73
2018-11-06T23:47:18.625Z,27.30
2018-11-06T23:49:48.722Z,30.40
2018-11-06T23:52:18.838Z,26.50
2018-11-06T23:54:48.912Z,22.90
2018-11-06T23:57:18.987Z,27.40
2018-11-06T23:59:49.125Z,23.47
